Time;durP1;ratioP1;P1;durP2;ratioP2;P2;SDS_P1;SDS_P2;PMS_P1;PMS_P2;Temp;Humidity;BMP_temperature;BMP_pressure;BME280_temperature;BME280_humidity;BME280_pressure;Samples;Min_cycle;Max_cycle;Signal;HPM_P1;HPM_P2
2021/04/05 00:02:19;;;;;;;16.40;8.75;;;4.70;99.90;;;;;;5068938;28;20386;-63
2021/04/05 00:04:44;;;;;;;15.38;7.90;;;4.70;99.90;;;;;;5067758;28;20437;-64
2021/04/05 00:07:10;;;;;;;17.57;8.30;;;4.70;99.90;;;;;;5067960;28;20448;-63
2021/04/05 00:09:39;;;;;;;14.55;7.75;;;4.60;99.90;;;;;;5068777;28;20893;-64
2021/04/05 00:12:08;;;;;;;17.58;8.13;;;4.60;99.90;;;;;;5069491;28;20379;-56
2021/04/05 00:14:37;;;;;;;14.77;8.07;;;5.70;99.90;;;;;;5066858;28;20470;-64
2021/04/05 00:17:03;;;;;;;15.93;7.63;;;4.50;99.90;;;;;;5051625;28;20423;-64
2021/04/05 00:19:29;;;;;;;14.13;7.40;;;4.50;99.90;;;;;;5067708;28;20419;-63
2021/04/05 00:21:54;;;;;;;15.07;7.60;;;6.40;99.90;;;;;;5068625;28;20800;-64
2021/04/05 00:24:20;;;;;;;14.63;7.10;;;4.40;99.90;;;;;;5068568;28;20380;-63
2021/04/05 00:26:46;;;;;;;16.00;6.97;;;4.40;99.90;;;;;;5068210;28;20376;-65
2021/04/05 00:29:12;;;;;;;12.82;7.00;;;4.40;99.90;;;;;;5067698;28;20422;-64
2021/04/05 00:31:38;;;;;;;11.60;6.70;;;4.50;99.90;;;;;;5068930;28;20475;-64
2021/04/05 00:34:04;;;;;;;13.35;6.75;;;4.60;99.90;;;;;;5067052;28;20403;-56
2021/04/05 00:36:30;;;;;;;13.95;7.63;;;4.40;99.90;;;;;;5071946;28;20788;-64
2021/04/05 00:38:55;;;;;;;11.85;7.13;;;4.70;99.90;;;;;;5070599;28;20403;-64
2021/04/05 00:41:21;;;;;;;15.40;7.60;;;4.50;99.90;;;;;;5075053;28;20845;-65
2021/04/05 00:43:48;;;;;;;15.90;7.90;;;4.80;99.90;;;;;;5073414;28;20367;-64
2021/04/05 00:46:20;;;;;;;15.43;7.00;;;6.50;99.90;;;;;;5070123;28;20420;-64
2021/04/05 00:48:46;;;;;;;15.40;7.00;;;4.50;99.90;;;;;;5072742;28;20426;-64
2021/04/05 00:51:14;;;;;;;12.07;6.60;;;4.50;99.90;;;;;;5071303;28;20392;-65
2021/04/05 00:53:42;;;;;;;13.23;6.32;;;4.60;99.90;;;;;;5072563;28;20387;-65
2021/04/05 00:56:09;;;;;;;17.20;6.68;;;4.60;99.90;;;;;;5070363;28;20490;-57
2021/04/05 00:58:35;;;;;;;14.15;6.70;;;6.20;99.90;;;;;;5071633;28;20407;-65
2021/04/05 01:01:06;;;;;;;11.80;6.28;;;6.30;99.90;;;;;;5071664;28;20411;-65
2021/04/05 01:03:34;;;;;;;12.73;6.05;;;5.80;99.90;;;;;;5071067;28;20406;-62
2021/04/05 01:06:08;;;;;;;12.52;6.40;;;4.80;99.90;;;;;;5071767;28;20380;-64
2021/04/05 01:08:34;;;;;;;11.55;5.53;;;4.80;99.90;;;;;;5070227;28;20403;-62
2021/04/05 01:10:59;;;;;;;11.70;5.70;;;4.80;99.90;;;;;;5084615;28;20785;-64
2021/04/05 01:13:25;;;;;;;12.27;5.93;;;4.80;99.90;;;;;;5070353;28;20415;-64
2021/04/05 01:15:51;;;;;;;13.05;5.90;;;5.90;99.90;;;;;;5072607;28;20457;-64
2021/04/05 01:18:17;;;;;;;13.77;6.10;;;4.80;99.90;;;;;;5069641;28;20438;-64
2021/04/05 01:20:44;;;;;;;11.40;6.00;;;4.70;99.90;;;;;;5071679;28;20429;-64
2021/04/05 01:23:10;;;;;;;12.60;6.57;;;5.70;99.90;;;;;;5069205;28;20877;-58
2021/04/05 01:25:37;;;;;;;12.10;6.07;;;4.60;99.90;;;;;;5071105;28;20417;-64
2021/04/05 01:28:03;;;;;;;12.17;6.23;;;5.30;99.90;;;;;;5071344;28;20395;-64
2021/04/05 01:30:39;;;;;;;12.65;5.88;;;4.70;99.90;;;;;;5071558;28;20912;-64
2021/04/05 01:33:16;;;;;;;12.57;6.43;;;4.70;99.90;;;;;;5070880;28;20384;-57
2021/04/05 01:35:54;;;;;;;12.90;5.70;;;5.60;99.90;;;;;;5071229;28;20860;-65
2021/04/05 01:38:29;;;;;;;12.90;6.00;;;4.60;99.90;;;;;;5070942;28;20412;-65
2021/04/05 01:41:00;;;;;;;12.73;5.60;;;7.10;99.90;;;;;;5074568;28;20915;-63
2021/04/05 01:43:26;;;;;;;14.80;6.10;;;4.50;99.90;;;;;;5065432;28;20748;-63
2021/04/05 01:45:57;;;;;;;11.90;6.10;;;4.80;99.90;;;;;;5072412;28;20402;-64
2021/04/05 01:48:24;;;;;;;13.20;6.37;;;4.50;99.90;;;;;;5068982;28;20480;-65
2021/04/05 01:50:56;;;;;;;10.70;5.70;;;5.10;99.90;;;;;;5071999;28;20451;-64
2021/04/05 01:53:22;;;;;;;12.35;5.60;;;4.40;99.90;;;;;;5071282;28;20372;-65
2021/04/05 01:55:47;;;;;;;13.90;6.13;;;6.50;99.90;;;;;;5069839;28;20384;-64
2021/04/05 01:58:17;;;;;;;13.82;6.20;;;4.60;99.90;;;;;;5069012;28;20416;-65
2021/04/05 02:00:44;;;;;;;12.23;5.93;;;4.40;99.90;;;;;;5071343;28;20384;-65
2021/04/05 02:03:10;;;;;;;14.18;5.75;;;4.40;99.90;;;;;;5069392;28;20396;-56
2021/04/05 02:05:42;;;;;;;11.57;5.90;;;4.40;99.90;;;;;;5071037;28;20415;-64
2021/04/05 02:08:08;;;;;;;16.00;6.20;;;4.40;99.90;;;;;;5071611;28;20372;-57
2021/04/05 02:10:34;;;;;;;12.18;5.80;;;4.40;99.90;;;;;;5071003;28;20449;-66
2021/04/05 02:13:00;;;;;;;11.65;6.05;;;5.30;99.90;;;;;;5070786;28;20407;-65
2021/04/05 02:15:27;;;;;;;13.50;5.90;;;4.60;99.90;;;;;;5068724;28;20407;-59
2021/04/05 02:17:53;;;;;;;12.67;5.33;;;4.70;99.90;;;;;;5071851;28;20375;-65
2021/04/05 02:20:19;;;;;;;12.20;5.70;;;4.70;99.90;;;;;;5068452;28;20881;-66
2021/04/05 02:22:51;;;;;;;15.68;6.10;;;4.70;99.90;;;;;;5071208;28;20854;-60
2021/04/05 02:25:19;;;;;;;13.50;6.30;;;4.80;99.90;;;;;;5068954;28;20750;-65
2021/04/05 02:27:54;;;;;;;10.77;5.75;;;6.40;99.90;;;;;;5070743;28;20387;-66
2021/04/05 02:30:26;;;;;;;14.18;6.30;;;6.40;99.90;;;;;;5065697;28;20399;-66
2021/04/05 02:32:57;;;;;;;10.98;5.70;;;5.00;99.90;;;;;;5071000;28;20477;-65
2021/04/05 02:35:25;;;;;;;13.10;6.07;;;4.50;99.90;;;;;;5068998;28;20435;-66
2021/04/05 02:37:52;;;;;;;10.15;6.20;;;4.60;99.90;;;;;;5070914;28;20387;-66
2021/04/05 02:40:18;;;;;;;13.38;6.35;;;4.40;99.90;;;;;;5077939;28;20386;-66
2021/04/05 02:42:46;;;;;;;15.82;6.95;;;4.40;99.90;;;;;;5083963;28;20388;-65
2021/04/05 02:45:17;;;;;;;13.05;6.35;;;5.60;99.90;;;;;;5069478;28;20707;-65
2021/04/05 02:47:44;;;;;;;13.90;6.25;;;4.40;99.90;;;;;;5069957;28;20388;-64
2021/04/05 02:50:11;;;;;;;15.43;6.25;;;4.30;99.90;;;;;;5050243;28;20388;-56
2021/04/05 02:52:37;;;;;;;11.50;5.85;;;4.40;99.90;;;;;;5061869;28;20929;-66
2021/04/05 02:55:09;;;;;;;17.05;6.95;;;4.50;99.90;;;;;;5070534;28;20380;-66
2021/04/05 02:57:37;;;;;;;14.80;6.47;;;4.70;99.90;;;;;;5067241;28;20443;-66
2021/04/05 03:00:14;;;;;;;12.25;5.70;;;4.70;99.90;;;;;;5069449;28;20416;-65
2021/04/05 03:02:46;;;;;;;14.27;6.45;;;4.70;99.90;;;;;;5068801;28;20399;-65
2021/04/05 03:05:15;;;;;;;14.30;6.47;;;4.60;99.90;;;;;;5068010;28;20434;-66
2021/04/05 03:07:42;;;;;;;13.80;6.20;;;4.60;99.90;;;;;;5070004;28;20601;-64
2021/04/05 03:10:11;;;;;;;13.07;6.43;;;4.90;99.90;;;;;;5068551;28;20410;-57
2021/04/05 03:12:39;;;;;;;14.67;6.00;;;4.60;99.90;;;;;;5068860;28;20528;-63
2021/04/05 03:15:08;;;;;;;15.07;5.85;;;5.10;99.90;;;;;;5069262;28;20399;-65
2021/04/05 03:17:35;;;;;;;14.18;5.50;;;4.50;99.90;;;;;;5049313;28;20447;-64
2021/04/05 03:20:08;;;;;;;12.18;5.90;;;4.50;99.90;;;;;;5062305;28;20419;-64
2021/04/05 03:22:37;;;;;;;10.95;5.97;;;4.40;99.90;;;;;;5068503;28;20388;-63
2021/04/05 03:25:04;;;;;;;15.20;6.50;;;4.90;99.90;;;;;;5050279;28;20403;-64
2021/04/05 03:27:29;;;;;;;10.90;5.80;;;4.40;99.90;;;;;;5068107;28;20395;-65
2021/04/05 03:29:59;;;;;;;12.98;6.53;;;4.40;99.90;;;;;;5069162;28;20445;-63
2021/04/05 03:32:28;;;;;;;12.17;6.13;;;7.20;99.90;;;;;;5067719;28;20388;-64
2021/04/05 03:34:58;;;;;;;15.32;6.10;;;5.50;99.90;;;;;;5068662;28;20422;-65
2021/04/05 03:37:26;;;;;;;10.47;5.20;;;5.10;99.90;;;;;;5068075;28;20488;-64
2021/04/05 03:39:52;;;;;;;13.00;6.30;;;4.50;99.90;;;;;;5068794;28;20408;-64
2021/04/05 03:42:30;;;;;;;11.93;5.72;;;5.50;99.90;;;;;;5069289;28;20386;-64
2021/04/05 03:45:11;;;;;;;15.65;6.90;;;4.30;99.90;;;;;;5068590;28;21263;-65
2021/04/05 03:47:58;;;;;;;14.20;6.00;;;4.30;99.90;;;;;;5069351;28;20380;-66
2021/04/05 03:50:28;;;;;;;14.40;6.05;;;4.40;99.90;;;;;;5068981;28;20379;-64
2021/04/05 03:53:37;;;;;;;14.07;6.15;;;4.50;99.90;;;;;;5067910;28;20449;-65
2021/04/05 03:56:12;;;;;;;13.40;6.30;;;4.50;99.90;;;;;;4987977;28;20398;-63
2021/04/05 03:58:41;;;;;;;13.45;6.20;;;4.50;99.90;;;;;;5046598;28;20427;-64
2021/04/05 04:01:08;;;;;;;17.60;7.27;;;5.60;99.90;;;;;;5069563;28;20387;-65
2021/04/05 04:06:29;;;;;;;14.87;6.10;;;4.30;99.90;;;;;;5068500;28;20438;-64
2021/04/05 04:08:57;;;;;;;15.23;6.63;;;4.20;99.90;;;;;;5069756;28;20380;-65
2021/04/05 04:11:27;;;;;;;16.25;7.05;;;4.10;99.90;;;;;;5078087;28;20411;-66
2021/04/05 04:13:55;;;;;;;12.07;5.95;;;4.10;99.90;;;;;;5068902;28;20387;-66
2021/04/05 04:16:22;;;;;;;16.55;6.60;;;4.10;99.90;;;;;;5068697;28;20885;-63
2021/04/05 04:18:48;;;;;;;12.43;6.17;;;4.20;99.90;;;;;;5068054;28;20415;-66
2021/04/05 04:21:15;;;;;;;11.33;5.70;;;4.10;99.90;;;;;;5059877;28;20380;-64
2021/04/05 04:23:42;;;;;;;14.27;7.30;;;4.10;99.90;;;;;;5067693;28;20454;-66
2021/04/05 04:26:08;;;;;;;15.32;6.55;;;5.50;99.90;;;;;;5069229;28;20372;-64
2021/04/05 04:28:34;;;;;;;14.80;6.53;;;5.20;99.90;;;;;;5067133;28;20472;-65
2021/04/05 04:31:02;;;;;;;11.35;5.70;;;4.20;99.90;;;;;;5069543;28;20754;-66
2021/04/05 04:33:29;;;;;;;17.20;6.40;;;4.10;99.90;;;;;;5068031;28;20371;-63
2021/04/05 04:35:56;;;;;;;14.82;6.22;;;4.20;99.90;;;;;;5067879;28;20857;-65
2021/04/05 04:38:22;;;;;;;17.50;7.22;;;5.60;99.90;;;;;;5068501;28;20447;-65
2021/04/05 04:40:49;;;;;;;14.20;6.60;;;4.80;99.90;;;;;;5067167;28;20581;-63
2021/04/05 04:43:15;;;;;;;16.17;7.20;;;6.10;99.90;;;;;;5068800;28;20376;-64
2021/04/05 04:45:41;;;;;;;16.33;6.90;;;4.40;99.90;;;;;;5068229;28;20430;-66
2021/04/05 04:48:07;;;;;;;19.50;7.43;;;4.80;99.90;;;;;;5068087;28;20488;-65
2021/04/05 04:50:34;;;;;;;15.07;7.00;;;4.10;99.90;;;;;;5067629;28;20509;-65
2021/04/05 04:53:00;;;;;;;14.13;6.55;;;4.30;99.90;;;;;;5068741;28;20416;-64
2021/04/05 04:55:27;;;;;;;15.37;6.77;;;4.10;99.90;;;;;;5066509;28;20473;-65
2021/04/05 04:57:57;;;;;;;14.80;6.72;;;4.10;99.90;;;;;;5068925;28;20890;-64
2021/04/05 05:00:24;;;;;;;14.60;7.07;;;3.00;99.90;;;;;;5067322;28;20407;-65
2021/04/05 05:02:51;;;;;;;13.40;6.32;;;4.10;99.90;;;;;;5068324;28;20467;-65
2021/04/05 05:05:19;;;;;;;17.27;7.50;;;4.10;99.90;;;;;;5066828;28;20403;-60
2021/04/05 05:07:45;;;;;;;18.02;7.10;;;4.10;99.90;;;;;;5068089;28;20467;-65
2021/04/05 05:10:12;;;;;;;14.35;8.15;;;4.10;99.90;;;;;;5072307;28;20430;-56
2021/04/05 05:12:39;;;;;;;12.95;7.00;;;4.20;99.90;;;;;;5069489;28;20453;-65
2021/04/05 05:15:10;;;;;;;14.27;7.20;;;4.20;99.90;;;;;;5068167;28;20420;-65
2021/04/05 05:17:46;;;;;;;14.10;7.20;;;4.30;99.90;;;;;;5067999;28;20858;-65
2021/04/05 05:20:15;;;;;;;13.40;6.68;;;4.40;99.90;;;;;;5068890;28;20891;-57
2021/04/05 05:22:51;;;;;;;15.63;7.13;;;4.40;99.90;;;;;;5068938;28;20396;-65
2021/04/05 05:25:20;;;;;;;13.13;6.40;;;4.60;99.90;;;;;;5071462;28;20412;-65
2021/04/05 05:27:56;;;;;;;16.15;7.25;;;4.70;99.90;;;;;;5070447;28;20427;-65
2021/04/05 05:30:22;;;;;;;15.80;7.20;;;4.70;99.90;;;;;;5071048;28;20495;-63
2021/04/05 05:32:51;;;;;;;13.02;7.00;;;4.70;99.90;;;;;;5071076;28;20415;-66
2021/04/05 05:35:18;;;;;;;13.07;7.00;;;4.80;99.90;;;;;;5071506;28;20380;-65
2021/04/05 05:37:44;;;;;;;14.18;6.55;;;4.90;99.90;;;;;;5070566;28;20423;-63
2021/04/05 05:40:17;;;;;;;15.23;7.90;;;4.90;99.90;;;;;;5073690;28;20430;-58
2021/04/05 05:43:35;;;;;;;14.93;6.72;;;5.00;99.90;;;;;;5071035;28;20392;-65
2021/04/05 05:46:24;;;;;;;12.45;6.25;;;5.10;99.90;;;;;;5006937;28;20476;-64
2021/04/05 05:48:50;;;;;;;13.55;6.90;;;5.30;99.90;;;;;;5042705;28;20761;-65
2021/04/05 05:51:39;;;;;;;18.77;6.87;;;5.40;99.90;;;;;;5070657;28;20384;-59
2021/04/05 05:54:39;;;;;;;12.00;6.22;;;5.50;99.90;;;;;;5061838;28;20412;-65
2021/04/05 05:57:10;;;;;;;12.13;6.13;;;5.50;99.90;;;;;;5049342;28;20730;-66
2021/04/05 05:59:45;;;;;;;14.20;6.50;;;5.50;99.90;;;;;;5069000;28;20503;-60
2021/04/05 06:02:23;;;;;;;13.18;6.18;;;5.50;99.90;;;;;;5068362;28;20398;-54
2021/04/05 06:04:57;;;;;;;13.30;6.40;;;5.50;99.90;;;;;;5070314;28;20383;-65
2021/04/05 06:07:54;;;;;;;13.67;5.93;;;5.50;99.90;;;;;;5069115;28;20877;-66
2021/04/05 06:10:55;;;;;;;15.25;6.18;;;5.50;99.90;;;;;;5070301;28;20399;-65
2021/04/05 06:13:48;;;;;;;12.70;5.93;;;5.60;99.90;;;;;;5069054;28;20491;-64
2021/04/05 06:16:35;;;;;;;14.30;6.07;;;5.60;99.90;;;;;;5070343;28;20797;-55
2021/04/05 06:19:03;;;;;;;12.30;5.50;;;5.70;99.90;;;;;;5069349;28;20415;-66
2021/04/05 06:21:59;;;;;;;11.65;5.97;;;5.80;99.90;;;;;;5070238;28;20516;-65
2021/04/05 06:24:44;;;;;;;14.93;5.80;;;5.90;99.90;;;;;;5051178;28;20497;-65
2021/04/05 06:27:30;;;;;;;11.52;5.70;;;6.00;99.90;;;;;;5070075;28;20427;-67
2021/04/05 06:30:25;;;;;;;11.77;5.88;;;6.20;99.90;;;;;;5071034;28;20388;-67
2021/04/05 06:32:50;;;;;;;13.40;5.60;;;6.30;99.90;;;;;;5069345;28;20403;-68
2021/04/05 06:35:26;;;;;;;16.00;6.67;;;6.40;99.90;;;;;;5070098;28;20388;-64
2021/04/05 06:38:24;;;;;;;14.43;5.90;;;6.60;99.90;;;;;;5071040;28;20772;-59
2021/04/05 06:40:54;;;;;;;12.85;5.60;;;6.60;99.90;;;;;;5065305;28;20412;-65
2021/04/05 06:43:50;;;;;;;12.98;5.80;;;7.20;99.90;;;;;;5068574;28;20917;-66
2021/04/05 06:46:53;;;;;;;11.65;5.38;;;6.90;99.90;;;;;;5069598;28;20865;-58
2021/04/05 06:49:32;;;;;;;10.83;4.93;;;7.10;99.90;;;;;;5068699;28;20392;-65
2021/04/05 06:52:30;;;;;;;9.95;4.85;;;7.30;99.90;;;;;;5069324;28;20868;-66
2021/04/05 06:54:56;;;;;;;10.30;5.00;;;7.60;99.90;;;;;;5067454;28;20758;-64
2021/04/05 06:57:54;;;;;;;11.93;5.07;;;7.80;99.90;;;;;;5069617;28;20434;-66
2021/04/05 07:00:35;;;;;;;11.30;5.50;;;8.00;99.90;;;;;;5068162;28;20424;-65
2021/04/05 07:03:31;;;;;;;12.27;5.43;;;8.10;99.90;;;;;;5052180;28;20388;-64
2021/04/05 07:06:06;;;;;;;13.00;5.57;;;8.30;99.90;;;;;;5050238;28;20394;-65
2021/04/05 07:08:40;;;;;;;12.25;5.10;;;8.60;99.90;;;;;;5061452;28;20480;-66
2021/04/05 07:11:17;;;;;;;12.13;5.65;;;8.70;99.90;;;;;;5070070;28;20901;-64
2021/04/05 07:13:53;;;;;;;12.27;5.13;;;8.80;99.90;;;;;;5069289;28;20473;-64
2021/04/05 07:16:42;;;;;;;11.37;5.47;;;8.70;99.90;;;;;;5069139;28;20391;-65
2021/04/05 07:19:36;;;;;;;11.13;4.97;;;8.50;99.90;;;;;;5068616;28;20415;-67
2021/04/05 07:22:29;;;;;;;14.52;5.00;;;9.10;99.90;;;;;;5070160;28;20411;-66
2021/04/05 07:25:02;;;;;;;11.52;5.28;;;9.50;99.90;;;;;;5067898;28;20392;-65
2021/04/05 07:28:05;;;;;;;13.55;5.72;;;9.60;99.90;;;;;;5067082;28;20435;-64
2021/04/05 07:30:39;;;;;;;12.10;5.80;;;9.90;99.90;;;;;;5069238;28;20392;-65
2021/04/05 07:33:24;;;;;;;14.43;5.57;;;10.50;99.90;;;;;;5050287;28;20434;-64
2021/04/05 07:36:29;;;;;;;12.50;5.40;;;10.50;99.80;;;;;;5068993;28;20388;-65
2021/04/05 07:39:03;;;;;;;12.32;5.10;;;11.40;98.10;;;;;;5067571;28;20415;-65
2021/04/05 07:41:49;;;;;;;12.48;5.03;;;12.40;96.80;;;;;;5069806;28;20395;-67
2021/04/05 07:44:29;;;;;;;13.07;5.83;;;13.80;92.80;;;;;;5068278;28;20383;-57
2021/04/05 07:47:14;;;;;;;12.60;5.70;;;14.10;90.20;;;;;;5067858;28;20392;-66
2021/04/05 07:49:58;;;;;;;12.67;5.33;;;14.60;86.10;;;;;;5071900;28;20387;-66
2021/04/05 07:52:30;;;;;;;11.67;5.60;;;14.80;83.60;;;;;;5067841;28;20892;-66
2021/04/05 07:54:56;;;;;;;12.25;5.50;;;15.10;81.90;;;;;;5069418;28;20394;-52
2021/04/05 07:57:44;;;;;;;13.55;6.50;;;15.20;79.30;;;;;;5068124;28;20461;-52
2021/04/05 08:00:35;;;;;;;14.13;6.03;;;15.20;78.70;;;;;;5027802;28;20968;-52
2021/04/05 08:03:25;;;;;;;13.30;5.90;;;15.30;77.10;;;;;;5034069;28;20494;-52
2021/04/05 08:06:09;;;;;;;15.43;6.10;;;14.90;78.90;;;;;;5029537;28;20397;-52
2021/04/05 08:08:37;;;;;;;18.50;6.10;;;16.30;77.30;;;;;;5026148;28;20395;-52
2021/04/05 08:11:15;;;;;;;11.75;5.65;;;15.90;74.40;;;;;;5043874;28;20478;-52
2021/04/05 08:13:47;;;;;;;14.32;5.90;;;15.30;74.70;;;;;;5026635;28;20432;-52
2021/04/05 08:16:32;;;;;;;15.88;5.60;;;15.00;74.10;;;;;;5008247;28;20740;-50
2021/04/05 08:19:25;;;;;;;15.10;6.10;;;15.10;77.30;;;;;;5014582;28;20480;-52
2021/04/05 08:22:22;;;;;;;15.77;5.18;;;15.60;75.50;;;;;;5028715;28;20804;-52
2021/04/05 08:25:41;;;;;;;13.25;5.05;;;14.80;73.70;;;;;;5026593;28;20406;-52
2021/04/05 08:28:17;;;;;;;13.45;5.35;;;14.50;74.20;;;;;;5027730;28;20541;-52
2021/04/05 08:30:55;;;;;;;13.77;5.30;;;14.00;77.30;;;;;;5027795;28;20883;-52
2021/04/05 08:33:46;;;;;;;19.55;6.53;;;13.60;80.20;;;;;;5026420;28;20387;-59
2021/04/05 08:36:38;;;;;;;17.02;5.95;;;13.40;79.90;;;;;;5019901;28;20427;-63
2021/04/05 08:39:13;;;;;;;14.13;5.93;;;12.80;82.90;;;;;;5021684;28;20899;-64
2021/04/05 08:42:26;;;;;;;13.35;5.47;;;12.70;83.50;;;;;;5027462;28;20515;-63
2021/04/05 08:45:14;;;;;;;18.23;6.40;;;12.40;85.50;;;;;;4996084;28;20411;-63
2021/04/05 08:47:42;;;;;;;16.83;6.80;;;12.20;88.10;;;;;;5026220;28;20414;-65
2021/04/05 08:50:10;;;;;;;16.83;6.45;;;12.20;88.50;;;;;;5015611;28;20496;-66
2021/04/05 08:52:42;;;;;;;15.82;6.72;;;12.20;88.90;;;;;;5028419;28;20390;-63
2021/04/05 08:55:11;;;;;;;16.42;7.00;;;12.30;89.40;;;;;;5028656;28;20380;-64
2021/04/05 08:57:51;;;;;;;19.73;7.77;;;12.20;89.70;;;;;;5028041;28;20572;-65
2021/04/05 09:00:17;;;;;;;14.65;6.40;;;12.10;89.50;;;;;;5070296;28;20431;-57
2021/04/05 09:02:56;;;;;;;17.65;6.00;;;11.70;87.80;;;;;;5071036;28;20391;-69
2021/04/05 09:05:25;;;;;;;17.75;6.80;;;11.60;89.70;;;;;;5069009;28;20734;-65
2021/04/05 09:08:09;;;;;;;17.33;5.80;;;11.40;91.10;;;;;;5069778;28;20399;-58
2021/04/05 09:10:51;;;;;;;18.42;5.97;;;11.20;89.30;;;;;;5058104;28;20764;-64
2021/04/05 09:13:24;;;;;;;14.50;5.47;;;11.00;84.20;;;;;;5064984;28;20429;-64
2021/04/05 09:15:52;;;;;;;12.40;4.93;;;11.10;85.70;;;;;;5052843;28;20401;-65
2021/04/05 09:18:36;;;;;;;10.20;4.20;;;11.30;85.20;;;;;;5055112;28;20400;-54
2021/04/05 09:21:26;;;;;;;14.45;5.18;;;11.20;82.00;;;;;;5069670;28;20398;-63
2021/04/05 09:24:23;;;;;;;13.48;4.78;;;11.30;82.70;;;;;;5071327;28;20453;-60
2021/04/05 09:27:09;;;;;;;12.70;5.10;;;11.20;79.80;;;;;;5071371;28;20483;-64
2021/04/05 09:29:45;;;;;;;10.75;4.00;;;11.10;79.20;;;;;;5069283;28;20518;-64
2021/04/05 09:32:29;;;;;;;16.25;4.57;;;11.10;77.90;;;;;;5071784;28;20387;-64
2021/04/05 09:35:16;;;;;;;13.98;4.30;;;11.20;78.30;;;;;;5064215;28;20553;-66
2021/04/05 09:38:16;;;;;;;8.93;4.05;;;11.20;76.10;;;;;;5070024;28;20404;-61
2021/04/05 09:40:50;;;;;;;11.43;4.15;;;11.20;76.60;;;;;;5073248;28;20469;-60
2021/04/05 09:43:41;;;;;;;17.20;4.80;;;11.40;75.10;;;;;;5069401;28;20408;-55
2021/04/05 09:46:13;;;;;;;11.73;4.10;;;11.50;74.90;;;;;;5070492;28;20857;-62
2021/04/05 09:49:05;;;;;;;10.93;4.35;;;11.60;72.40;;;;;;5068572;28;20399;-60
2021/04/05 09:52:06;;;;;;;12.82;4.25;;;11.80;72.60;;;;;;5070361;28;20441;-60
2021/04/05 09:54:44;;;;;;;14.73;4.40;;;12.00;71.20;;;;;;5042412;28;20408;-61
2021/04/05 09:57:23;;;;;;;10.30;4.63;;;12.00;69.90;;;;;;5070112;28;20402;-60
2021/04/05 09:59:53;;;;;;;12.07;4.30;;;12.20;69.30;;;;;;5067634;28;20442;-61
2021/04/05 10:02:35;;;;;;;9.00;4.13;;;12.20;67.60;;;;;;5070890;28;20896;-55
2021/04/05 10:05:02;;;;;;;10.70;4.40;;;12.00;66.30;;;;;;5069299;28;20441;-60
2021/04/05 10:07:29;;;;;;;15.40;4.72;;;12.10;67.50;;;;;;5069114;28;20415;-59
2021/04/05 10:09:58;;;;;;;14.68;4.50;;;12.40;66.10;;;;;;5072152;28;20402;-62
2021/04/05 10:12:25;;;;;;;12.35;4.20;;;12.30;64.30;;;;;;5065767;28;20418;-63
2021/04/05 10:14:52;;;;;;;13.52;4.88;;;12.10;63.10;;;;;;5071096;28;20432;-59
2021/04/05 10:17:25;;;;;;;11.95;3.90;;;12.10;63.00;;;;;;5071053;28;20387;-55
2021/04/05 10:19:55;;;;;;;11.23;4.50;;;12.10;64.10;;;;;;5069232;28;20434;-62
2021/04/05 10:22:21;;;;;;;11.45;4.65;;;12.20;64.20;;;;;;5068557;28;20396;-55
2021/04/05 10:24:51;;;;;;;13.90;4.50;;;12.50;64.20;;;;;;5067748;28;20387;-60
2021/04/05 10:27:24;;;;;;;10.25;4.50;;;12.60;62.10;;;;;;5051115;28;20388;-57
2021/04/05 10:29:53;;;;;;;15.25;5.05;;;12.60;61.30;;;;;;5070864;28;20384;-61
2021/04/05 10:32:21;;;;;;;13.80;4.30;;;12.60;62.30;;;;;;5068914;28;20458;-55
2021/04/05 10:34:56;;;;;;;22.98;5.20;;;12.70;61.80;;;;;;5069744;28;20460;-61
2021/04/05 10:37:27;;;;;;;18.40;4.60;;;14.00;65.90;;;;;;5068785;28;20465;-60
2021/04/05 10:39:54;;;;;;;10.80;4.25;;;12.80;65.60;;;;;;5074875;28;20891;-61
2021/04/05 10:42:26;;;;;;;9.40;3.80;;;12.60;64.10;;;;;;5083935;28;20897;-55
2021/04/05 10:45:23;;;;;;;12.10;4.93;;;12.50;64.10;;;;;;5069176;28;20389;-61
2021/04/05 10:47:53;;;;;;;13.13;4.73;;;12.80;65.30;;;;;;5067152;28;20434;-60
2021/04/05 10:50:26;;;;;;;12.35;4.80;;;12.80;65.30;;;;;;5069754;28;20402;-54
2021/04/05 10:52:53;;;;;;;19.75;4.70;;;12.80;66.90;;;;;;5069299;28;20380;-61
2021/04/05 10:55:22;;;;;;;10.52;4.60;;;12.70;68.10;;;;;;5068271;28;20400;-55
2021/04/05 10:57:53;;;;;;;12.68;4.57;;;12.60;69.30;;;;;;5069033;28;20478;-60
2021/04/05 11:00:23;;;;;;;13.67;5.20;;;12.90;69.50;;;;;;5068790;28;20412;-55
2021/04/05 11:02:50;;;;;;;16.75;7.03;;;12.70;73.30;;;;;;5050757;28;20398;-61
2021/04/05 11:05:21;;;;;;;13.70;6.20;;;12.60;75.00;;;;;;5071752;28;20939;-59
2021/04/05 11:07:53;;;;;;;21.05;7.10;;;12.30;77.20;;;;;;5071540;28;20388;-61
2021/04/05 11:10:21;;;;;;;18.48;7.45;;;12.10;77.90;;;;;;5070614;28;20430;-55
2021/04/05 11:12:53;;;;;;;15.40;6.13;;;12.20;79.10;;;;;;5068727;28;20406;-60
2021/04/05 11:15:21;;;;;;;18.67;7.20;;;11.90;79.90;;;;;;5071075;28;20829;-54
2021/04/05 11:17:51;;;;;;;22.75;7.32;;;11.90;81.40;;;;;;5067895;28;20441;-58
2021/04/05 11:20:20;;;;;;;20.67;6.57;;;11.90;81.20;;;;;;5072781;28;20442;-57
2021/04/05 11:22:54;;;;;;;21.17;7.22;;;11.70;82.00;;;;;;5079269;28;20376;-58
2021/04/05 11:25:28;;;;;;;18.20;6.18;;;11.70;82.00;;;;;;5065794;28;20772;-59
2021/04/05 11:28:05;;;;;;;28.30;7.17;;;11.60;81.20;;;;;;5055653;28;20762;-60
2021/04/05 11:30:33;;;;;;;16.83;6.43;;;11.40;80.70;;;;;;5060825;28;20399;-59
2021/04/05 11:33:00;;;;;;;16.88;6.65;;;11.50;81.90;;;;;;5053268;28;20719;-59
2021/04/05 11:35:33;;;;;;;21.52;8.23;;;11.50;81.60;;;;;;5066358;28;20395;-60
2021/04/05 11:38:16;;;;;;;19.23;7.78;;;11.70;82.10;;;;;;5068336;28;20435;-60
2021/04/05 11:40:43;;;;;;;15.45;7.50;;;11.60;82.00;;;;;;5068723;28;20392;-58
2021/04/05 11:43:19;;;;;;;15.50;7.03;;;11.70;81.80;;;;;;5067665;28;20392;-60
2021/04/05 11:45:51;;;;;;;17.08;7.28;;;11.70;81.70;;;;;;5065589;28;20403;-62
2021/04/05 11:48:20;;;;;;;16.95;6.75;;;11.50;81.00;;;;;;5066369;28;20380;-60
2021/04/05 11:50:47;;;;;;;17.00;7.03;;;11.40;84.70;;;;;;5068484;28;20380;-61
2021/04/05 11:53:26;;;;;;;20.53;8.50;;;11.50;88.10;;;;;;5067338;28;20928;-60
2021/04/05 11:56:04;;;;;;;17.55;8.15;;;11.80;90.30;;;;;;5069332;28;20434;-61
2021/04/05 11:58:37;;;;;;;19.52;8.55;;;11.70;90.40;;;;;;5066486;28;20415;-60
2021/04/05 12:01:09;;;;;;;22.60;8.55;;;11.60;91.20;;;;;;5069062;28;20885;-62
2021/04/05 12:03:59;;;;;;;19.33;9.30;;;11.50;92.00;;;;;;5066566;28;20388;-60
2021/04/05 12:06:41;;;;;;;22.17;9.00;;;11.20;92.70;;;;;;5066557;28;20407;-59
2021/04/05 12:09:25;;;;;;;18.92;9.10;;;11.10;93.60;;;;;;5050801;28;20428;-58
2021/04/05 12:11:54;;;;;;;17.20;8.75;;;11.00;94.50;;;;;;5067164;28;20889;-59
2021/04/05 12:14:26;;;;;;;20.38;10.95;;;11.10;95.30;;;;;;5068045;28;20488;-54
2021/04/05 12:16:55;;;;;;;21.50;10.77;;;11.10;95.40;;;;;;5067831;28;20404;-60
2021/04/05 12:19:32;;;;;;;25.35;10.27;;;11.00;95.80;;;;;;5067045;28;20412;-54
2021/04/05 12:21:59;;;;;;;23.50;9.73;;;11.00;96.00;;;;;;5051010;28;20453;-62
2021/04/05 12:24:31;;;;;;;19.15;8.63;;;10.90;96.30;;;;;;5065941;28;20396;-61
2021/04/05 12:27:06;;;;;;;20.08;9.10;;;10.90;96.80;;;;;;5063523;28;20430;-58
2021/04/05 12:29:33;;;;;;;17.60;8.25;;;10.80;96.10;;;;;;5068194;28;20376;-61
2021/04/05 12:32:02;;;;;;;23.67;9.30;;;10.60;96.70;;;;;;5069265;28;20399;-62
2021/04/05 12:34:30;;;;;;;20.77;9.00;;;10.50;97.00;;;;;;5072144;28;20379;-60
2021/04/05 12:36:58;;;;;;;21.73;9.63;;;10.50;97.00;;;;;;5072476;28;20431;-61
2021/04/05 12:39:30;;;;;;;26.13;8.95;;;10.40;97.70;;;;;;5070145;28;20415;-54
2021/04/05 12:41:56;;;;;;;24.80;9.15;;;10.40;97.60;;;;;;5073182;28;20806;-62
2021/04/05 12:44:30;;;;;;;20.95;9.73;;;10.50;98.30;;;;;;5070789;28;20396;-56
2021/04/05 12:47:00;;;;;;;29.58;9.65;;;10.50;98.20;;;;;;5072446;28;20471;-61
2021/04/05 12:49:34;;;;;;;22.73;9.10;;;10.60;98.60;;;;;;5069693;28;20761;-62
2021/04/05 12:52:06;;;;;;;19.50;9.48;;;10.40;98.30;;;;;;5053216;28;20402;-61
2021/04/05 12:54:35;;;;;;;24.52;9.18;;;10.30;98.50;;;;;;5070057;28;20473;-59
2021/04/05 12:57:04;;;;;;;23.70;9.05;;;9.30;98.90;;;;;;5070433;28;20978;-62
2021/04/05 12:59:30;;;;;;;24.40;8.90;;;10.50;98.70;;;;;;5071065;28;20922;-62
2021/04/05 13:02:10;;;;;;;18.63;9.18;;;10.50;98.20;;;;;;5053078;28;20449;-57
2021/04/05 13:04:40;;;;;;;22.67;8.20;;;10.50;97.80;;;;;;5070652;28;20394;-62
2021/04/05 13:07:18;;;;;;;25.15;9.15;;;10.40;97.40;;;;;;5071804;28;20410;-60
2021/04/05 13:09:55;;;;;;;22.10;8.70;;;10.50;97.10;;;;;;5071478;28;20522;-61
2021/04/05 13:12:45;;;;;;;20.50;8.97;;;10.60;96.90;;;;;;5063633;28;20387;-54
2021/04/05 13:15:18;;;;;;;20.92;8.93;;;10.50;97.30;;;;;;5070322;28;20427;-64
2021/04/05 13:17:50;;;;;;;18.45;7.90;;;10.60;97.10;;;;;;5071188;28;21012;-67
2021/04/05 13:20:18;;;;;;;20.25;8.50;;;10.40;96.60;;;;;;5071762;28;20415;-63
2021/04/05 13:22:53;;;;;;;20.33;7.47;;;10.40;96.50;;;;;;5068686;28;20407;-65